createdAt,value
2017-05-24T00:00:11.386Z,23.63
2017-05-24T00:01:12.032Z,23.62
2017-05-24T00:02:12.674Z,23.63
2017-05-24T00:03:13.317Z,23.59
2017-05-24T00:04:14.161Z,23.63
2017-05-24T00:05:14.802Z,23.55
2017-05-24T00:06:15.473Z,23.55
2017-05-24T00:07:16.089Z,23.56
2017-05-24T00:08:16.732Z,23.58
2017-05-24T00:09:17.383Z,23.59
2017-05-24T00:10:18.020Z,23.61
2017-05-24T00:11:18.662Z,23.56
2017-05-24T00:12:19.456Z,23.61
2017-05-24T00:13:20.096Z,23.56
2017-05-24T00:14:20.738Z,23.56
2017-05-24T00:15:21.380Z,23.50
2017-05-24T00:16:22.023Z,23.54
2017-05-24T00:17:22.666Z,23.54
2017-05-24T00:18:23.308Z,23.48
2017-05-24T00:19:23.954Z,23.50
2017-05-24T00:20:24.805Z,23.51
2017-05-24T00:21:25.447Z,23.48
2017-05-24T00:22:26.087Z,23.54
2017-05-24T00:23:26.679Z,23.51
2017-05-24T00:24:27.324Z,23.44
2017-05-24T00:25:27.968Z,23.47
2017-05-24T00:26:28.608Z,23.48
2017-05-24T00:27:29.251Z,23.48
2017-05-24T00:28:30.046Z,23.48
2017-05-24T00:29:30.685Z,23.48
2017-05-24T00:30:31.325Z,23.51
2017-05-24T00:31:31.967Z,23.50
2017-05-24T00:32:32.607Z,23.47
2017-05-24T00:33:33.252Z,23.46
2017-05-24T00:34:33.897Z,23.47
2017-05-24T00:35:34.537Z,23.44
2017-05-24T00:36:35.179Z,23.43
2017-05-24T00:37:36.072Z,23.46
2017-05-24T00:38:36.715Z,23.44
2017-05-24T00:39:37.360Z,23.48
2017-05-24T00:40:37.997Z,23.41
2017-05-24T00:41:38.641Z,23.43
2017-05-24T00:42:39.284Z,23.41
2017-05-24T00:43:39.925Z,23.44
2017-05-24T00:44:40.566Z,23.40
2017-05-24T00:45:41.360Z,23.40
2017-05-24T00:46:42.004Z,23.43
2017-05-24T00:47:42.647Z,23.47
2017-05-24T00:48:43.290Z,23.41
2017-05-24T00:49:43.934Z,23.39
2017-05-24T00:50:44.579Z,23.40
2017-05-24T00:51:45.220Z,23.39
2017-05-24T00:52:45.862Z,23.37
2017-05-24T00:53:46.757Z,23.40
2017-05-24T00:54:47.400Z,23.40
2017-05-24T00:55:48.041Z,23.37
2017-05-24T00:56:48.687Z,23.40
2017-05-24T00:57:49.330Z,23.34
2017-05-24T00:58:49.974Z,23.34
2017-05-24T00:59:50.614Z,23.37
2017-05-24T01:00:51.251Z,23.40
2017-05-24T01:01:52.146Z,23.43
2017-05-24T01:02:52.786Z,23.43
2017-05-24T01:03:53.426Z,23.28
2017-05-24T01:04:54.071Z,23.34
2017-05-24T01:05:54.713Z,23.31
2017-05-24T01:06:55.355Z,23.28
2017-05-24T01:07:55.999Z,23.39
2017-05-24T01:08:56.643Z,23.31
2017-05-24T01:09:57.287Z,23.28
2017-05-24T01:10:58.134Z,23.27
2017-05-24T01:11:58.771Z,23.36
2017-05-24T01:12:59.414Z,23.28
2017-05-24T01:14:00.060Z,23.39
2017-05-24T01:15:00.703Z,23.34
2017-05-24T01:16:01.346Z,23.27
2017-05-24T01:17:01.987Z,23.31
2017-05-24T01:18:02.629Z,23.36
2017-05-24T01:19:03.471Z,23.34
2017-05-24T01:20:04.116Z,23.31
2017-05-24T01:21:04.757Z,23.34
2017-05-24T01:22:05.399Z,23.25
2017-05-24T01:23:06.041Z,23.28
2017-05-24T01:24:06.685Z,23.21
2017-05-24T01:25:07.330Z,23.21
2017-05-24T01:26:07.973Z,23.20
2017-05-24T01:27:08.767Z,23.23
2017-05-24T01:28:09.410Z,23.18
2017-05-24T01:29:10.054Z,23.18
2017-05-24T01:30:10.696Z,23.25
2017-05-24T01:31:11.339Z,23.23
2017-05-24T01:32:11.984Z,23.20
2017-05-24T01:33:12.626Z,23.24
2017-05-24T01:34:13.268Z,23.25
2017-05-24T01:35:14.110Z,23.21
2017-05-24T01:36:14.758Z,23.23
2017-05-24T01:37:15.396Z,23.24
2017-05-24T01:38:16.040Z,23.24
2017-05-24T01:39:16.681Z,23.20
2017-05-24T01:40:17.325Z,23.25
2017-05-24T01:41:17.966Z,23.18
2017-05-24T01:42:18.606Z,23.18
2017-05-24T01:43:19.398Z,23.21
2017-05-24T01:44:20.040Z,23.18
2017-05-24T01:45:20.683Z,23.18
2017-05-24T01:46:21.322Z,23.15
2017-05-24T01:47:21.964Z,23.21
2017-05-24T01:48:22.604Z,23.15
2017-05-24T01:49:23.246Z,23.23
2017-05-24T01:50:23.888Z,23.18
2017-05-24T01:51:24.534Z,23.21
2017-05-24T01:52:25.379Z,23.20
2017-05-24T01:53:26.025Z,23.20
2017-05-24T01:54:26.661Z,23.18
2017-05-24T01:55:27.303Z,23.20
2017-05-24T01:56:27.949Z,23.18
2017-05-24T01:57:28.591Z,23.13
2017-05-24T01:58:29.233Z,23.12
2017-05-24T01:59:29.874Z,23.17
2017-05-24T02:00:30.661Z,23.23
2017-05-24T02:01:31.303Z,23.15
2017-05-24T02:02:31.948Z,23.17
2017-05-24T02:03:32.585Z,23.18
2017-05-24T02:04:33.231Z,23.23
2017-05-24T02:05:33.872Z,23.17
2017-05-24T02:06:34.516Z,23.15
2017-05-24T02:07:35.160Z,23.18
2017-05-24T02:08:36.001Z,23.20
2017-05-24T02:09:36.646Z,23.17
2017-05-24T02:10:37.289Z,23.12
2017-05-24T02:11:37.933Z,23.18
2017-05-24T02:12:38.573Z,23.18
2017-05-24T02:13:39.216Z,23.08
2017-05-24T02:14:39.854Z,23.24
2017-05-24T02:15:40.494Z,23.06
2017-05-24T02:16:41.340Z,23.17
2017-05-24T02:17:41.977Z,23.17
2017-05-24T02:18:42.620Z,23.17
2017-05-24T02:19:43.261Z,23.17
2017-05-24T02:20:43.904Z,23.10
2017-05-24T02:21:44.548Z,23.23
2017-05-24T02:22:45.143Z,23.15
2017-05-24T02:23:45.784Z,23.13
2017-05-24T02:24:46.428Z,23.06
2017-05-24T02:25:47.269Z,23.15
2017-05-24T02:26:47.911Z,23.24
2017-05-24T02:27:48.555Z,23.20
2017-05-24T02:28:49.198Z,23.09
2017-05-24T02:29:49.838Z,23.08
2017-05-24T02:30:50.481Z,23.17
2017-05-24T02:31:51.125Z,23.06
2017-05-24T02:32:51.768Z,23.21
2017-05-24T02:33:52.712Z,23.13
2017-05-24T02:34:53.355Z,23.05
2017-05-24T02:35:53.996Z,23.18
2017-05-24T02:36:54.638Z,23.13
2017-05-24T02:37:55.282Z,23.12
2017-05-24T02:38:55.926Z,23.13
2017-05-24T02:39:56.562Z,23.12
2017-05-24T02:40:57.205Z,23.15
2017-05-24T02:41:58.047Z,23.15
2017-05-24T02:42:58.690Z,23.08
2017-05-24T02:43:59.329Z,23.06
2017-05-24T02:44:59.967Z,23.15
2017-05-24T02:46:00.609Z,23.15
2017-05-24T02:47:01.253Z,23.17
2017-05-24T02:48:01.893Z,23.12
2017-05-24T02:49:02.565Z,23.15
2017-05-24T02:50:03.383Z,23.17
2017-05-24T02:51:04.023Z,23.18
2017-05-24T02:52:04.669Z,23.12
2017-05-24T02:53:05.309Z,23.21
2017-05-24T02:54:05.956Z,23.21
2017-05-24T02:55:06.598Z,23.15
2017-05-24T02:56:07.239Z,23.20
2017-05-24T02:57:07.876Z,23.08
2017-05-24T02:58:08.721Z,23.18
2017-05-24T02:59:09.363Z,23.24
2017-05-24T03:00:10.007Z,23.17
2017-05-24T03:01:10.648Z,23.17
2017-05-24T03:02:11.291Z,23.15
2017-05-24T03:03:11.936Z,23.24
2017-05-24T03:04:12.583Z,23.24
2017-05-24T03:05:13.224Z,23.18
2017-05-24T03:06:13.872Z,23.27
2017-05-24T03:07:14.662Z,23.17
2017-05-24T03:08:15.304Z,23.20
2017-05-24T03:09:15.947Z,23.18
2017-05-24T03:10:16.592Z,23.18
2017-05-24T03:11:17.234Z,23.20
2017-05-24T03:12:17.871Z,23.20
2017-05-24T03:13:18.513Z,23.23
2017-05-24T03:14:19.154Z,23.18
2017-05-24T03:15:19.995Z,23.20
2017-05-24T03:16:20.631Z,23.21
2017-05-24T03:17:21.275Z,23.13
2017-05-24T03:18:21.916Z,23.21
2017-05-24T03:19:22.558Z,23.15
2017-05-24T03:20:23.202Z,23.17
2017-05-24T03:21:23.845Z,23.23
2017-05-24T03:22:24.486Z,23.18
2017-05-24T03:23:25.330Z,23.21
2017-05-24T03:24:25.972Z,23.17
2017-05-24T03:25:26.616Z,23.23
2017-05-24T03:26:27.262Z,23.18
2017-05-24T03:27:27.904Z,23.18
2017-05-24T03:28:28.544Z,23.20
2017-05-24T03:29:29.183Z,23.21
2017-05-24T03:30:29.824Z,23.28
2017-05-24T03:31:30.616Z,23.23
2017-05-24T03:32:31.253Z,23.21
2017-05-24T03:33:31.894Z,23.39
2017-05-24T03:34:32.541Z,23.25
2017-05-24T03:35:33.179Z,23.25
2017-05-24T03:36:33.816Z,23.20
2017-05-24T03:37:34.460Z,23.21
2017-05-24T03:38:35.096Z,23.20
2017-05-24T03:39:35.741Z,23.25
2017-05-24T03:40:36.687Z,23.23
2017-05-24T03:41:37.326Z,23.34
2017-05-24T03:42:37.966Z,23.37
2017-05-24T03:43:38.609Z,23.36
2017-05-24T03:44:39.253Z,23.34
2017-05-24T03:45:39.895Z,23.25
2017-05-24T03:46:40.541Z,23.37
2017-05-24T03:47:41.183Z,23.36
2017-05-24T03:48:42.037Z,23.36
2017-05-24T03:49:42.667Z,23.27
2017-05-24T03:50:43.311Z,23.31
2017-05-24T03:51:43.957Z,23.31
2017-05-24T03:52:44.599Z,23.31
2017-05-24T03:53:45.244Z,23.31
2017-05-24T03:54:45.884Z,23.34
2017-05-24T03:55:46.527Z,23.39
2017-05-24T03:56:47.370Z,23.31
2017-05-24T03:57:48.014Z,23.27
2017-05-24T03:58:48.657Z,23.36
2017-05-24T03:59:49.299Z,23.28
2017-05-24T04:00:49.943Z,23.31
2017-05-24T04:01:50.584Z,23.39
2017-05-24T04:02:51.226Z,23.39
2017-05-24T04:03:51.870Z,23.27
2017-05-24T04:04:52.714Z,23.27
2017-05-24T04:05:53.358Z,23.34
2017-05-24T04:06:53.999Z,23.32
2017-05-24T04:07:54.642Z,23.27
2017-05-24T04:08:55.284Z,23.32
2017-05-24T04:09:55.927Z,23.36
2017-05-24T04:10:56.566Z,23.40
2017-05-24T04:11:57.207Z,23.36
2017-05-24T04:12:58.155Z,23.34
2017-05-24T04:13:58.797Z,23.34
2017-05-24T04:14:59.438Z,23.36
2017-05-24T04:16:00.080Z,23.31
2017-05-24T04:17:00.717Z,23.39
2017-05-24T04:18:01.355Z,23.39
2017-05-24T04:19:01.996Z,23.34
2017-05-24T04:20:02.638Z,23.34
2017-05-24T04:21:03.318Z,23.28
2017-05-24T04:22:04.233Z,23.39
2017-05-24T04:23:04.879Z,23.31
2017-05-24T04:24:05.518Z,23.27
2017-05-24T04:25:06.157Z,23.39
2017-05-24T04:26:06.810Z,23.34
2017-05-24T04:27:07.443Z,23.34
2017-05-24T04:28:08.085Z,23.31
2017-05-24T04:29:08.728Z,23.31
2017-05-24T04:30:09.523Z,23.32
2017-05-24T04:31:10.165Z,23.27
2017-05-24T04:32:10.807Z,23.28
2017-05-24T04:33:11.459Z,23.34
2017-05-24T04:34:12.104Z,23.39
2017-05-24T04:35:12.746Z,23.34
2017-05-24T04:36:13.390Z,23.31
2017-05-24T04:37:14.035Z,23.32
2017-05-24T04:38:14.924Z,23.41
2017-05-24T04:39:15.566Z,23.37
2017-05-24T04:40:16.206Z,23.31
2017-05-24T04:41:16.869Z,23.34
2017-05-24T04:42:17.502Z,23.31
2017-05-24T04:43:18.147Z,23.31
2017-05-24T04:44:18.788Z,23.39
2017-05-24T04:45:19.430Z,23.31
2017-05-24T04:46:20.322Z,23.28
2017-05-24T04:47:20.961Z,23.32
2017-05-24T04:48:21.606Z,23.32
2017-05-24T04:49:22.246Z,23.36
2017-05-24T04:50:22.886Z,23.39
2017-05-24T04:51:23.529Z,23.28
2017-05-24T04:52:24.170Z,23.32
2017-05-24T04:53:24.814Z,23.31
2017-05-24T04:54:25.457Z,23.31
2017-05-24T04:55:26.295Z,23.28
2017-05-24T04:56:26.937Z,23.39
2017-05-24T04:57:27.579Z,23.27
2017-05-24T04:58:28.224Z,23.39
2017-05-24T04:59:28.868Z,23.37
2017-05-24T05:00:29.508Z,23.37
2017-05-24T05:01:30.147Z,23.28
2017-05-24T05:02:30.790Z,23.27
2017-05-24T05:03:31.634Z,23.31
2017-05-24T05:04:32.274Z,23.37
2017-05-24T05:05:32.911Z,23.39
2017-05-24T05:06:33.555Z,23.40
2017-05-24T05:07:34.200Z,23.37
2017-05-24T05:08:34.843Z,23.37
2017-05-24T05:09:35.487Z,23.36
2017-05-24T05:10:36.128Z,23.23
2017-05-24T05:11:36.970Z,23.21
2017-05-24T05:12:37.613Z,23.23
2017-05-24T05:13:38.257Z,23.21
2017-05-24T05:14:38.902Z,23.23
2017-05-24T05:15:39.543Z,23.23
2017-05-24T05:16:40.184Z,23.20
2017-05-24T05:17:40.821Z,23.28
2017-05-24T05:18:41.460Z,23.21
2017-05-24T05:19:42.255Z,23.23
2017-05-24T05:20:42.891Z,23.23
2017-05-24T05:21:43.535Z,23.27
2017-05-24T05:22:44.180Z,23.23
2017-05-24T05:23:44.822Z,23.23
2017-05-24T05:24:45.464Z,23.24
2017-05-24T05:25:46.105Z,23.24
2017-05-24T05:26:46.744Z,23.20
2017-05-24T05:27:47.586Z,23.25
2017-05-24T05:28:48.229Z,23.21
2017-05-24T05:29:48.868Z,23.23
2017-05-24T05:30:49.508Z,23.15
2017-05-24T05:31:50.155Z,23.17
2017-05-24T05:32:50.797Z,23.13
2017-05-24T05:33:51.451Z,23.24
2017-05-24T05:34:52.083Z,23.13
2017-05-24T05:35:52.723Z,23.23
2017-05-24T05:36:53.675Z,23.21
2017-05-24T05:37:54.319Z,23.18
2017-05-24T05:38:54.961Z,23.17
2017-05-24T05:39:55.604Z,23.13
2017-05-24T05:40:56.243Z,23.13
2017-05-24T05:41:56.886Z,23.20
2017-05-24T05:42:57.527Z,23.20
2017-05-24T05:43:58.173Z,23.21
2017-05-24T05:44:59.063Z,23.17
2017-05-24T05:45:59.709Z,23.18
2017-05-24T05:47:00.350Z,23.12
2017-05-24T05:48:00.996Z,23.20
2017-05-24T05:49:01.636Z,23.20
2017-05-24T05:50:02.278Z,23.18
2017-05-24T05:51:02.923Z,23.15
2017-05-24T05:52:03.566Z,23.17
2017-05-24T05:53:04.361Z,23.23
2017-05-24T05:54:05.058Z,23.20
2017-05-24T05:55:05.701Z,23.18
2017-05-24T05:56:06.341Z,23.17
2017-05-24T05:57:06.984Z,23.17
2017-05-24T05:58:07.626Z,23.24
2017-05-24T05:59:08.268Z,23.24
2017-05-24T06:00:08.913Z,23.15
2017-05-24T06:01:09.805Z,23.18
2017-05-24T06:02:10.449Z,23.17
2017-05-24T06:03:11.098Z,23.15
2017-05-24T06:04:11.733Z,23.15
2017-05-24T06:05:12.375Z,23.12
2017-05-24T06:06:13.022Z,23.20
2017-05-24T06:07:13.658Z,23.20
2017-05-24T06:08:14.299Z,23.18
2017-05-24T06:09:14.942Z,23.18
2017-05-24T06:10:15.734Z,23.23
2017-05-24T06:11:16.376Z,23.18
2017-05-24T06:12:17.018Z,23.17
2017-05-24T06:13:17.654Z,23.18
2017-05-24T06:14:18.293Z,23.20
2017-05-24T06:15:18.941Z,23.15
2017-05-24T06:16:19.579Z,23.17
2017-05-24T06:17:20.222Z,23.18
2017-05-24T06:18:21.063Z,23.18
2017-05-24T06:19:21.707Z,23.05
2017-05-24T06:20:22.353Z,23.17
2017-05-24T06:21:22.992Z,23.20
2017-05-24T06:22:23.635Z,23.17
2017-05-24T06:23:24.271Z,23.05
2017-05-24T06:24:24.914Z,23.13
2017-05-24T06:25:25.556Z,23.12
2017-05-24T06:26:26.403Z,23.15
2017-05-24T06:27:27.047Z,23.10
2017-05-24T06:28:27.691Z,23.10
2017-05-24T06:29:28.331Z,23.15
2017-05-24T06:30:28.976Z,23.15
2017-05-24T06:31:29.619Z,23.13
2017-05-24T06:32:30.256Z,23.08
2017-05-24T06:33:30.895Z,23.21
2017-05-24T06:34:31.691Z,23.12
2017-05-24T06:35:32.333Z,23.12
2017-05-24T06:36:32.976Z,23.15
2017-05-24T06:37:33.620Z,23.13
2017-05-24T06:38:34.261Z,23.13
2017-05-24T06:39:34.905Z,23.10
2017-05-24T06:40:35.549Z,23.17
2017-05-24T06:41:36.186Z,23.17
2017-05-24T06:42:37.128Z,23.23
2017-05-24T06:43:37.772Z,23.18
2017-05-24T06:44:38.413Z,23.21
2017-05-24T06:45:39.055Z,23.12
2017-05-24T06:46:39.698Z,23.24
2017-05-24T06:47:40.341Z,23.21
2017-05-24T06:48:40.987Z,23.17
2017-05-24T06:49:41.628Z,23.13
2017-05-24T06:50:42.271Z,23.17
2017-05-24T06:51:43.064Z,23.17
2017-05-24T06:52:43.704Z,23.15
2017-05-24T06:53:44.346Z,23.17
2017-05-24T06:54:44.991Z,23.23
2017-05-24T06:55:45.630Z,23.18
2017-05-24T06:56:46.270Z,23.12
2017-05-24T06:57:46.915Z,23.15
2017-05-24T06:58:47.558Z,23.20
2017-05-24T06:59:48.445Z,23.15
2017-05-24T07:00:49.087Z,23.17
2017-05-24T07:01:49.680Z,23.17
2017-05-24T07:02:50.321Z,23.17
2017-05-24T07:03:50.960Z,23.17
2017-05-24T07:04:51.603Z,23.18
2017-05-24T07:05:52.246Z,23.21
2017-05-24T07:06:52.888Z,23.18
2017-05-24T07:07:53.734Z,23.17
2017-05-24T07:08:54.374Z,23.23
2017-05-24T07:09:55.017Z,23.21
2017-05-24T07:10:55.658Z,23.18
2017-05-24T07:11:56.301Z,23.28
2017-05-24T07:12:56.946Z,23.24
2017-05-24T07:13:57.588Z,23.21
2017-05-24T07:14:58.233Z,23.23
2017-05-24T07:15:59.176Z,23.27
2017-05-24T07:16:59.817Z,23.28
2017-05-24T07:18:00.452Z,23.31
2017-05-24T07:19:01.098Z,23.25
2017-05-24T07:20:01.740Z,23.20
2017-05-24T07:21:02.327Z,23.24
2017-05-24T07:22:02.963Z,23.20
2017-05-24T07:23:03.610Z,23.24
2017-05-24T07:24:04.253Z,23.25
2017-05-24T07:25:05.245Z,23.21
2017-05-24T07:26:05.885Z,23.25
2017-05-24T07:27:06.527Z,23.23
2017-05-24T07:28:07.169Z,23.23
2017-05-24T07:29:07.813Z,23.25
2017-05-24T07:30:08.451Z,23.27
2017-05-24T07:31:09.097Z,23.25
2017-05-24T07:32:09.734Z,23.20
2017-05-24T07:33:10.526Z,23.25
2017-05-24T07:34:11.165Z,23.17
2017-05-24T07:35:11.805Z,23.28
2017-05-24T07:36:12.446Z,23.27
2017-05-24T07:37:13.082Z,23.21
2017-05-24T07:38:13.725Z,23.20
2017-05-24T07:39:14.371Z,23.21
2017-05-24T07:40:15.012Z,23.25
2017-05-24T07:41:15.857Z,23.20
2017-05-24T07:42:16.500Z,23.20
2017-05-24T07:43:17.141Z,23.25
2017-05-24T07:44:17.786Z,23.25
2017-05-24T07:45:18.429Z,23.21
2017-05-24T07:46:19.071Z,23.21
2017-05-24T07:47:19.713Z,23.27
2017-05-24T07:48:20.350Z,23.25
2017-05-24T07:49:21.193Z,23.23
2017-05-24T07:50:21.837Z,23.27
2017-05-24T07:51:22.477Z,23.15
2017-05-24T07:52:23.117Z,23.24
2017-05-24T07:53:23.757Z,23.25
2017-05-24T07:54:24.400Z,23.24
2017-05-24T07:55:25.049Z,23.27
2017-05-24T07:56:25.689Z,23.40
2017-05-24T07:57:26.483Z,23.32
2017-05-24T07:58:27.125Z,23.23
2017-05-24T07:59:27.769Z,23.24
2017-05-24T08:00:28.408Z,23.28
2017-05-24T08:01:29.047Z,23.25
2017-05-24T08:02:29.693Z,23.36
2017-05-24T08:03:30.336Z,23.27
2017-05-24T08:04:30.979Z,23.27
2017-05-24T08:05:31.625Z,23.25
2017-05-24T08:06:32.566Z,23.31
2017-05-24T08:07:33.210Z,23.37
2017-05-24T08:08:33.852Z,23.21
2017-05-24T08:09:34.494Z,23.24
2017-05-24T08:10:35.136Z,23.37
2017-05-24T08:11:35.773Z,23.36
2017-05-24T08:12:36.417Z,23.28
2017-05-24T08:13:37.060Z,23.39
2017-05-24T08:14:37.852Z,23.27
2017-05-24T08:15:38.498Z,23.37
2017-05-24T08:16:39.143Z,23.39
2017-05-24T08:17:39.785Z,23.27
2017-05-24T08:18:40.424Z,23.34
2017-05-24T08:19:41.066Z,23.34
2017-05-24T08:20:41.708Z,23.31
2017-05-24T08:21:42.353Z,23.34
2017-05-24T08:22:43.200Z,23.31
2017-05-24T08:23:43.841Z,23.31
2017-05-24T08:24:44.483Z,23.39
2017-05-24T08:25:45.123Z,23.36
2017-05-24T08:26:45.765Z,23.37
2017-05-24T08:27:46.408Z,23.32
2017-05-24T08:28:47.051Z,23.39
2017-05-24T08:29:47.695Z,23.37
2017-05-24T08:30:48.486Z,23.40
2017-05-24T08:31:49.130Z,23.34
2017-05-24T08:32:49.775Z,23.37
2017-05-24T08:33:50.421Z,23.39
2017-05-24T08:34:51.051Z,23.36
2017-05-24T08:35:51.691Z,23.43
2017-05-24T08:36:52.334Z,23.36
2017-05-24T08:37:52.978Z,23.39
2017-05-24T08:38:53.615Z,23.41
2017-05-24T08:39:54.457Z,23.41
2017-05-24T08:40:55.100Z,23.40
2017-05-24T08:41:55.744Z,23.41
2017-05-24T08:42:56.390Z,23.41
2017-05-24T08:43:57.031Z,23.36
2017-05-24T08:44:57.672Z,23.40
2017-05-24T08:45:58.317Z,23.39
2017-05-24T08:46:58.957Z,23.41
2017-05-24T08:47:59.803Z,23.40
2017-05-24T08:49:00.445Z,23.43
2017-05-24T08:50:01.081Z,23.40
2017-05-24T08:51:01.725Z,23.40
2017-05-24T08:52:02.367Z,23.44
2017-05-24T08:53:03.011Z,23.47
2017-05-24T08:54:03.657Z,23.46
2017-05-24T08:55:04.305Z,23.41
2017-05-24T08:56:05.235Z,23.50
2017-05-24T08:57:05.872Z,23.46
2017-05-24T08:58:06.514Z,23.44
2017-05-24T08:59:07.160Z,23.48
2017-05-24T09:00:07.803Z,23.48
2017-05-24T09:01:08.445Z,23.48
2017-05-24T09:02:09.086Z,23.51
2017-05-24T09:03:09.726Z,23.43
2017-05-24T09:04:10.570Z,23.47
2017-05-24T09:05:11.212Z,23.51
2017-05-24T09:06:11.855Z,23.47
2017-05-24T09:07:12.498Z,23.47
2017-05-24T09:08:13.143Z,23.50
2017-05-24T09:09:13.791Z,23.46
2017-05-24T09:10:14.429Z,23.56
2017-05-24T09:11:15.074Z,23.47
2017-05-24T09:12:15.918Z,23.43
2017-05-24T09:13:16.563Z,23.54
2017-05-24T09:14:17.209Z,23.55
2017-05-24T09:15:17.851Z,23.50
2017-05-24T09:16:18.495Z,23.54
2017-05-24T09:17:19.136Z,23.51
2017-05-24T09:18:19.774Z,23.56
2017-05-24T09:19:20.416Z,23.55
2017-05-24T09:20:21.086Z,23.56
2017-05-24T09:21:21.900Z,23.55
2017-05-24T09:22:22.545Z,23.61
2017-05-24T09:23:23.190Z,23.55
2017-05-24T09:24:23.833Z,23.59
2017-05-24T09:25:24.480Z,23.59
2017-05-24T09:26:25.118Z,23.55
2017-05-24T09:27:25.764Z,23.59
2017-05-24T09:28:26.410Z,23.58
2017-05-24T09:29:27.204Z,23.58
2017-05-24T09:30:27.844Z,23.54
2017-05-24T09:31:28.482Z,23.58
2017-05-24T09:32:29.129Z,23.66
2017-05-24T09:33:29.775Z,23.59
2017-05-24T09:34:30.420Z,23.58
2017-05-24T09:35:31.063Z,23.59
2017-05-24T09:36:31.705Z,23.58
2017-05-24T09:37:32.649Z,23.56
2017-05-24T09:38:33.292Z,23.62
2017-05-24T09:39:33.938Z,23.62
2017-05-24T09:40:34.580Z,23.65
2017-05-24T09:41:35.226Z,23.59
2017-05-24T09:42:35.868Z,23.61
2017-05-24T09:43:36.510Z,23.61
2017-05-24T09:44:37.148Z,23.63
2017-05-24T09:45:37.935Z,23.62
2017-05-24T09:46:38.579Z,23.59
2017-05-24T09:47:39.223Z,23.58
2017-05-24T09:48:39.867Z,23.65
2017-05-24T09:49:40.508Z,23.65
2017-05-24T09:50:41.156Z,23.62
2017-05-24T09:51:41.802Z,23.62
2017-05-24T09:52:42.448Z,23.65
2017-05-24T09:53:43.093Z,23.65
2017-05-24T09:54:43.934Z,23.58
2017-05-24T09:55:44.576Z,23.63
2017-05-24T09:56:45.220Z,23.68
2017-05-24T09:57:45.867Z,23.61
2017-05-24T09:58:46.505Z,23.63
2017-05-24T09:59:47.153Z,23.63
2017-05-24T10:00:47.791Z,23.56
2017-05-24T10:01:48.431Z,23.56
2017-05-24T10:02:49.272Z,23.56
2017-05-24T10:03:49.918Z,23.61
2017-05-24T10:04:50.560Z,23.59
2017-05-24T10:05:51.203Z,23.63
2017-05-24T10:06:51.843Z,23.65
2017-05-24T10:07:52.486Z,23.68
2017-05-24T10:08:53.131Z,23.65
2017-05-24T10:09:53.778Z,23.73
2017-05-24T10:10:54.624Z,23.69
2017-05-24T10:11:55.266Z,23.73
2017-05-24T10:12:55.903Z,23.65
2017-05-24T10:13:56.549Z,23.71
2017-05-24T10:14:57.194Z,23.68
2017-05-24T10:15:57.839Z,23.73
2017-05-24T10:16:58.477Z,23.80
2017-05-24T10:17:59.114Z,23.74
2017-05-24T10:18:59.954Z,23.68
2017-05-24T10:20:00.596Z,23.77
2017-05-24T10:21:01.190Z,23.71
2017-05-24T10:22:03.384Z,23.74
2017-05-24T10:23:04.028Z,23.81
2017-05-24T10:24:04.671Z,23.73
2017-05-24T10:25:05.314Z,23.80
2017-05-24T10:26:05.959Z,23.71
2017-05-24T10:27:06.748Z,23.77
2017-05-24T10:28:07.391Z,23.74
2017-05-24T10:29:08.039Z,23.76
2017-05-24T10:30:08.682Z,23.77
2017-05-24T10:31:09.329Z,23.71
2017-05-24T10:32:09.974Z,23.78
2017-05-24T10:33:10.618Z,23.81
2017-05-24T10:34:11.257Z,23.81
2017-05-24T10:35:11.902Z,23.80
2017-05-24T10:36:12.845Z,23.83
2017-05-24T10:37:13.487Z,23.81
2017-05-24T10:38:14.127Z,23.77
2017-05-24T10:39:14.792Z,23.81
2017-05-24T10:40:15.415Z,23.81
2017-05-24T10:41:16.061Z,23.86
2017-05-24T10:42:16.702Z,23.84
2017-05-24T10:43:17.342Z,23.87
2017-05-24T10:44:18.135Z,23.87
2017-05-24T10:45:18.773Z,23.86
2017-05-24T10:46:19.417Z,23.87
2017-05-24T10:47:20.057Z,23.88
2017-05-24T10:48:20.697Z,23.86
2017-05-24T10:49:21.342Z,23.87
2017-05-24T10:50:21.984Z,23.87
2017-05-24T10:51:22.633Z,23.87
2017-05-24T10:52:23.473Z,23.93
2017-05-24T10:53:24.112Z,23.93
2017-05-24T10:54:24.755Z,23.99
2017-05-24T10:55:25.403Z,23.93
2017-05-24T10:56:26.043Z,23.92
2017-05-24T10:57:26.688Z,23.96
2017-05-24T10:58:27.333Z,23.91
2017-05-24T10:59:27.976Z,23.96
2017-05-24T11:00:28.824Z,23.93
2017-05-24T11:01:29.466Z,23.87
2017-05-24T11:02:30.111Z,23.95
2017-05-24T11:03:30.757Z,23.88
2017-05-24T11:04:31.399Z,23.98
2017-05-24T11:05:32.044Z,23.92
2017-05-24T11:06:32.689Z,23.88
2017-05-24T11:07:33.336Z,23.87
2017-05-24T11:08:34.131Z,23.98
2017-05-24T11:09:34.773Z,23.93
2017-05-24T11:10:35.420Z,23.92
2017-05-24T11:11:36.066Z,23.92
2017-05-24T11:12:36.724Z,23.95
2017-05-24T11:13:37.355Z,23.95
2017-05-24T11:14:37.999Z,23.96
2017-05-24T11:15:38.637Z,24.02
2017-05-24T11:16:39.275Z,23.96
2017-05-24T11:17:40.122Z,23.96
2017-05-24T11:18:40.764Z,24.02
2017-05-24T11:19:41.407Z,23.98
2017-05-24T11:20:42.052Z,24.05
2017-05-24T11:21:42.750Z,24.06
2017-05-24T11:22:43.391Z,24.01
2017-05-24T11:23:44.034Z,24.03
2017-05-24T11:24:44.679Z,24.08
2017-05-24T11:25:45.473Z,24.03
2017-05-24T11:26:46.114Z,24.10
2017-05-24T11:27:46.757Z,24.03
2017-05-24T11:28:47.402Z,24.05
2017-05-24T11:29:48.049Z,24.05
2017-05-24T11:30:48.695Z,24.03
2017-05-24T11:31:49.338Z,24.08
2017-05-24T11:32:49.981Z,24.03
2017-05-24T11:33:50.877Z,24.10
2017-05-24T11:34:51.521Z,24.05
2017-05-24T11:35:52.166Z,24.10
2017-05-24T11:36:52.810Z,24.08
2017-05-24T11:37:53.455Z,24.06
2017-05-24T11:38:54.095Z,24.06
2017-05-24T11:39:54.738Z,24.06
2017-05-24T11:40:55.382Z,24.03
2017-05-24T11:41:56.381Z,24.05
2017-05-24T11:42:57.022Z,24.02
2017-05-24T11:43:57.666Z,24.05
2017-05-24T11:44:58.305Z,24.02
2017-05-24T11:45:58.950Z,24.11
2017-05-24T11:46:59.595Z,24.06
2017-05-24T11:48:05.742Z,24.03
2017-05-24T11:49:06.386Z,24.05
2017-05-24T11:50:07.029Z,24.06
2017-05-24T11:51:07.867Z,24.10
2017-05-24T11:52:08.535Z,24.06
2017-05-24T11:53:09.152Z,24.06
2017-05-24T11:54:09.798Z,24.08
2017-05-24T11:55:10.446Z,24.06
2017-05-24T11:56:11.085Z,24.11
2017-05-24T11:57:11.729Z,24.05
2017-05-24T11:58:12.376Z,24.05
2017-05-24T11:59:13.171Z,24.03
2017-05-24T12:00:13.815Z,24.06
2017-05-24T12:01:14.459Z,24.16
2017-05-24T12:02:15.104Z,24.11
2017-05-24T12:03:15.751Z,24.10
2017-05-24T12:04:16.396Z,24.13
2017-05-24T12:05:16.993Z,24.20
2017-05-24T12:06:17.635Z,24.18
2017-05-24T12:07:18.530Z,24.10
2017-05-24T12:08:19.171Z,24.21
2017-05-24T12:09:19.810Z,24.17
2017-05-24T12:10:20.449Z,24.14
2017-05-24T12:11:21.091Z,24.06
2017-05-24T12:12:21.739Z,24.17
2017-05-24T12:13:22.390Z,24.14
2017-05-24T12:14:23.029Z,24.06
2017-05-24T12:15:23.869Z,24.16
2017-05-24T12:16:24.515Z,24.11
2017-05-24T12:17:25.162Z,24.18
2017-05-24T12:18:26.130Z,24.16
2017-05-24T12:19:26.774Z,24.17
2017-05-24T12:20:27.417Z,24.17
2017-05-24T12:21:28.016Z,24.17
2017-05-24T12:22:28.716Z,24.18
2017-05-24T12:23:29.559Z,24.26
2017-05-24T12:24:30.203Z,24.16
2017-05-24T12:25:30.805Z,24.26
2017-05-24T12:26:31.444Z,24.13
2017-05-24T12:27:32.088Z,24.20
2017-05-24T12:28:32.729Z,24.28
2017-05-24T12:29:33.381Z,24.24
2017-05-24T12:30:34.017Z,24.17
2017-05-24T12:31:34.665Z,24.20
2017-05-24T12:32:35.458Z,24.18
2017-05-24T12:33:36.097Z,24.18
2017-05-24T12:34:36.743Z,24.23
2017-05-24T12:35:37.390Z,24.28
2017-05-24T12:36:38.034Z,24.26
2017-05-24T12:37:38.679Z,24.29
2017-05-24T12:38:39.325Z,24.29
2017-05-24T12:39:39.965Z,24.24
2017-05-24T12:40:40.809Z,24.33
2017-05-24T12:41:41.405Z,24.26
2017-05-24T12:42:42.054Z,24.29
2017-05-24T12:43:42.688Z,24.26
2017-05-24T12:44:43.327Z,24.26
2017-05-24T12:45:43.972Z,24.29
2017-05-24T12:46:44.617Z,24.26
2017-05-24T12:47:45.262Z,24.26
2017-05-24T12:48:46.107Z,24.24
2017-05-24T12:49:46.753Z,24.28
2017-05-24T12:50:47.393Z,24.28
2017-05-24T12:51:48.034Z,24.20
2017-05-24T12:52:48.680Z,24.28
2017-05-24T12:53:49.322Z,24.24
2017-05-24T12:54:49.965Z,24.29
2017-05-24T12:55:50.608Z,24.26
2017-05-24T12:56:51.450Z,24.28
2017-05-24T12:57:52.092Z,24.26
2017-05-24T12:58:52.735Z,24.28
2017-05-24T12:59:53.381Z,24.30
2017-05-24T13:00:54.024Z,24.28